Albion, Michigan
Current Conditions -  °F | °C
As of 1:53 AM on Thursday 23 Oct 2014 (Local Time) from KRMY Reporting Station
Moderate Fog Moderate Fog  
Wind Chill: -2°   Ceiling: 200
Heat Index: -2°   Visibility: 0.5mi
Dew Point: -2°   Wind: 0mph
Humidity: 99%   Direction: NA
Pressure: 30.28"   Gusts: NA
Location:  42.25°N, 84.75°W
Report Text: KRMY 230553Z AUTO 00000KT 1/2SM FZFG OVC002 M02/M02 A3028 RMK AO2 T10191021
Loading
Personal Weather Stations






























Interactive Weather Map
Tropical Storm Tracking
New forecast layout! Learn more

10-Day Weather Forecast

Advertisements
Track Severe Weather on mobile